KOA342 YPAD-YAYE
Flight info
| Callsign | KOA342 |
|---|---|
| Flight time | 1h 59m |
| Altitude | 36000 |
| Route | AREPA1 AREPA DCT WHA DCT TEGEX DCT CBP DCT VIRUV DCT ARENI DCT 26S32 DCT |
| Aircraft | A20N/M-SDE2E3FGHIJ1RWXY/LB1 |
Departure
| Time | 2026-04-15 15:12 |
|---|---|
| Airport | Adelaide International Airport (YPAD) |
Arrival
| Time | 2026-04-15 17:12 |
|---|---|
| Airport | Ayers Rock Connellan Airport (YAYE) |
| Time | Latitude | Longitude | Altitude | Speed | Heading |
|---|---|---|---|---|---|
| 2026-04-15 15:12 | -34.87170 | 138.64262 | 4925 ft | 250 kts | 46° |
| 2026-04-15 15:12 | -34.84782 | 138.67268 | 6499 ft | 256 kts | 25° |
| 2026-04-15 15:12 | -34.83112 | 138.67923 | 7309 ft | 250 kts | 360° |
| 2026-04-15 15:13 | -34.81419 | 138.67686 | 8146 ft | 244 kts | 337° |
| 2026-04-15 15:13 | -34.79967 | 138.66659 | 8987 ft | 242 kts | 317° |
| 2026-04-15 15:13 | -34.79114 | 138.65776 | 9556 ft | 244 kts | 317° |
| 2026-04-15 15:13 | -34.77723 | 138.63614 | 10597 ft | 246 kts | 292° |
| 2026-04-15 15:14 | -34.77347 | 138.61586 | 11356 ft | 250 kts | 272° |
| 2026-04-15 15:14 | -34.77627 | 138.59487 | 12105 ft | 257 kts | 252° |
| 2026-04-15 15:14 | -34.78441 | 138.57529 | 12857 ft | 261 kts | 245° |
| 2026-04-15 15:14 | -34.79308 | 138.55571 | 13605 ft | 264 kts | 246° |
| 2026-04-15 15:15 | -34.80175 | 138.53592 | 14302 ft | 266 kts | 246° |
| 2026-04-15 15:15 | -34.81042 | 138.51593 | 14951 ft | 269 kts | 246° |
| 2026-04-15 15:15 | -34.81917 | 138.49568 | 15594 ft | 271 kts | 247° |
| 2026-04-15 15:15 | -34.82623 | 138.47449 | 16216 ft | 270 kts | 261° |
| 2026-04-15 15:16 | -34.82796 | 138.45195 | 16841 ft | 268 kts | 276° |
| 2026-04-15 15:16 | -34.82421 | 138.42984 | 17450 ft | 269 kts | 289° |
| 2026-04-15 15:16 | -34.81842 | 138.40809 | 18070 ft | 271 kts | 289° |
| 2026-04-15 15:16 | -34.81267 | 138.38614 | 18649 ft | 273 kts | 288° |
| 2026-04-15 15:17 | -34.80692 | 138.36399 | 19179 ft | 275 kts | 288° |
| 2026-04-15 15:17 | -34.80114 | 138.34170 | 19699 ft | 278 kts | 288° |
| 2026-04-15 15:17 | -34.79530 | 138.31918 | 20205 ft | 280 kts | 288° |
| 2026-04-15 15:17 | -34.78942 | 138.29654 | 20719 ft | 282 kts | 288° |
| 2026-04-15 15:18 | -34.78347 | 138.27364 | 21221 ft | 285 kts | 288° |
| 2026-04-15 15:18 | -34.77748 | 138.25065 | 21717 ft | 287 kts | 288° |
| 2026-04-15 15:18 | -34.77143 | 138.22742 | 22208 ft | 289 kts | 288° |
| 2026-04-15 15:18 | -34.76502 | 138.20402 | 22550 ft | 297 kts | 292° |
| 2026-04-15 15:19 | -34.75619 | 138.18059 | 22677 ft | 313 kts | 298° |
| 2026-04-15 15:19 | -34.74441 | 138.15746 | 22837 ft | 330 kts | 304° |
| 2026-04-15 15:19 | -34.73112 | 138.13392 | 22968 ft | 346 kts | 303° |
| 2026-04-15 15:19 | -34.71731 | 138.10922 | 23114 ft | 361 kts | 303° |
| 2026-04-15 15:20 | -34.70296 | 138.08345 | 23298 ft | 375 kts | 303° |
| 2026-04-15 15:20 | -34.69325 | 138.06599 | 23592 ft | 378 kts | 303° |
| 2026-04-15 15:20 | -34.67847 | 138.03944 | 24106 ft | 380 kts | 303° |
| 2026-04-15 15:20 | -34.66361 | 138.01279 | 24616 ft | 382 kts | 303° |
| 2026-04-15 15:21 | -34.64866 | 137.98601 | 25100 ft | 384 kts | 303° |
| 2026-04-15 15:21 | -34.63361 | 137.95906 | 25574 ft | 387 kts | 303° |
| 2026-04-15 15:21 | -34.61845 | 137.93194 | 26039 ft | 389 kts | 303° |
| 2026-04-15 15:21 | -34.60318 | 137.90468 | 26494 ft | 392 kts | 304° |
| 2026-04-15 15:22 | -34.58526 | 137.87964 | 26931 ft | 396 kts | 315° |
| 2026-04-15 15:22 | -34.56302 | 137.85966 | 27347 ft | 403 kts | 327° |
| 2026-04-15 15:22 | -34.53715 | 137.84581 | 27747 ft | 411 kts | 339° |
| 2026-04-15 15:22 | -34.50899 | 137.83844 | 28145 ft | 417 kts | 345° |
| 2026-04-15 15:23 | -34.48026 | 137.83225 | 28524 ft | 420 kts | 345° |
| 2026-04-15 15:23 | -34.45142 | 137.82598 | 28898 ft | 422 kts | 345° |
| 2026-04-15 15:23 | -34.42237 | 137.81962 | 29269 ft | 425 kts | 345° |
| 2026-04-15 15:23 | -34.39323 | 137.81322 | 29618 ft | 427 kts | 345° |
| 2026-04-15 15:24 | -34.36391 | 137.80677 | 29964 ft | 430 kts | 345° |
| 2026-04-15 15:24 | -34.33440 | 137.80029 | 30289 ft | 432 kts | 345° |
| 2026-04-15 15:24 | -34.30476 | 137.79378 | 30618 ft | 433 kts | 345° |
| 2026-04-15 15:24 | -34.27502 | 137.78726 | 30947 ft | 435 kts | 345° |
| 2026-04-15 15:25 | -34.24525 | 137.78074 | 31293 ft | 435 kts | 345° |
| 2026-04-15 15:25 | -34.21544 | 137.77422 | 31702 ft | 435 kts | 345° |
| 2026-04-15 15:25 | -34.18571 | 137.76773 | 32138 ft | 433 kts | 344° |
| 2026-04-15 15:25 | -34.15613 | 137.76127 | 32569 ft | 432 kts | 344° |
| 2026-04-15 15:26 | -34.12663 | 137.75483 | 32995 ft | 430 kts | 344° |
| 2026-04-15 15:26 | -34.09724 | 137.74841 | 33406 ft | 429 kts | 344° |
| 2026-04-15 15:26 | -34.06831 | 137.74209 | 33807 ft | 427 kts | 344° |
| 2026-04-15 15:26 | -34.03916 | 137.73574 | 34184 ft | 425 kts | 344° |
| 2026-04-15 15:27 | -34.01012 | 137.72942 | 34526 ft | 423 kts | 343° |
| 2026-04-15 15:27 | -33.98119 | 137.72312 | 34839 ft | 422 kts | 343° |
| 2026-04-15 15:27 | -33.95230 | 137.71683 | 35138 ft | 421 kts | 343° |
| 2026-04-15 15:27 | -33.92355 | 137.71058 | 35421 ft | 420 kts | 343° |
| 2026-04-15 15:28 | -33.89480 | 137.70433 | 35711 ft | 419 kts | 343° |
| 2026-04-15 15:28 | -33.86617 | 137.69811 | 35986 ft | 418 kts | 343° |
| 2026-04-15 15:28 | -33.80910 | 137.68574 | 36112 ft | 415 kts | 342° |
| 2026-04-15 15:29 | -33.75233 | 137.67343 | 36114 ft | 415 kts | 342° |
| 2026-04-15 15:29 | -33.69549 | 137.66111 | 36115 ft | 415 kts | 342° |
| 2026-04-15 15:30 | -33.63879 | 137.64885 | 36117 ft | 415 kts | 342° |
| 2026-04-15 15:30 | -33.58194 | 137.63659 | 36116 ft | 414 kts | 342° |
| 2026-04-15 15:31 | -33.52518 | 137.62435 | 36115 ft | 415 kts | 342° |
| 2026-04-15 15:31 | -33.46830 | 137.61211 | 36117 ft | 415 kts | 342° |
| 2026-04-15 15:32 | -33.41142 | 137.59987 | 36097 ft | 416 kts | 342° |
| 2026-04-15 15:32 | -33.35455 | 137.58767 | 36120 ft | 415 kts | 342° |
| 2026-04-15 15:33 | -33.29770 | 137.57547 | 36123 ft | 415 kts | 342° |
| 2026-04-15 15:33 | -33.24087 | 137.56329 | 36123 ft | 415 kts | 342° |
| 2026-04-15 15:34 | -33.18405 | 137.55114 | 36107 ft | 414 kts | 342° |
| 2026-04-15 15:34 | -33.12733 | 137.53903 | 36123 ft | 414 kts | 342° |
| 2026-04-15 15:35 | -33.07254 | 137.52157 | 36122 ft | 403 kts | 331° |
| 2026-04-15 15:35 | -33.02416 | 137.48983 | 36119 ft | 393 kts | 319° |
| 2026-04-15 15:36 | -32.98222 | 137.44870 | 36117 ft | 390 kts | 315° |
| 2026-04-15 15:36 | -32.94064 | 137.40721 | 36118 ft | 390 kts | 316° |
| 2026-04-15 15:37 | -32.89904 | 137.36587 | 36131 ft | 389 kts | 316° |
| 2026-04-15 15:37 | -32.85743 | 137.32455 | 36132 ft | 389 kts | 316° |
| 2026-04-15 15:38 | -32.81611 | 137.28357 | 36132 ft | 389 kts | 316° |
| 2026-04-15 15:38 | -32.77450 | 137.24236 | 36132 ft | 389 kts | 316° |
| 2026-04-15 15:39 | -32.73293 | 137.20123 | 36132 ft | 389 kts | 316° |
| 2026-04-15 15:39 | -32.69135 | 137.16015 | 36132 ft | 389 kts | 316° |
| 2026-04-15 15:40 | -32.64975 | 137.11910 | 36127 ft | 389 kts | 316° |
| 2026-04-15 15:40 | -32.60861 | 137.07856 | 36130 ft | 389 kts | 316° |
| 2026-04-15 15:41 | -32.56701 | 137.03761 | 36136 ft | 388 kts | 316° |
| 2026-04-15 15:41 | -32.52542 | 136.99673 | 36139 ft | 388 kts | 316° |
| 2026-04-15 15:42 | -32.48382 | 136.95588 | 36137 ft | 388 kts | 316° |
| 2026-04-15 15:42 | -32.44224 | 136.91511 | 36137 ft | 388 kts | 316° |
| 2026-04-15 15:43 | -32.40067 | 136.87439 | 36137 ft | 388 kts | 316° |
| 2026-04-15 15:43 | -32.35907 | 136.83369 | 36136 ft | 388 kts | 316° |
| 2026-04-15 15:44 | -32.31750 | 136.79308 | 36133 ft | 387 kts | 316° |
| 2026-04-15 15:44 | -32.27597 | 136.75256 | 36132 ft | 387 kts | 316° |
| 2026-04-15 15:45 | -32.23449 | 136.71214 | 36124 ft | 386 kts | 316° |
| 2026-04-15 15:45 | -32.19316 | 136.67191 | 36133 ft | 385 kts | 316° |
| 2026-04-15 15:46 | -32.15208 | 136.63197 | 36129 ft | 385 kts | 316° |
| 2026-04-15 15:46 | -32.11081 | 136.59189 | 36130 ft | 384 kts | 316° |
| 2026-04-15 15:47 | -32.06952 | 136.55183 | 36121 ft | 384 kts | 316° |
| 2026-04-15 15:47 | -32.02826 | 136.51187 | 36116 ft | 384 kts | 316° |
| 2026-04-15 15:48 | -31.98701 | 136.47196 | 36123 ft | 384 kts | 316° |
| 2026-04-15 15:48 | -31.94572 | 136.43206 | 36122 ft | 384 kts | 316° |
| 2026-04-15 15:49 | -31.90447 | 136.39224 | 36114 ft | 384 kts | 316° |
| 2026-04-15 15:49 | -31.86312 | 136.35237 | 36115 ft | 384 kts | 316° |
| 2026-04-15 15:50 | -31.82177 | 136.31256 | 36121 ft | 384 kts | 316° |
| 2026-04-15 15:50 | -31.78039 | 136.27276 | 36122 ft | 384 kts | 316° |
| 2026-04-15 15:51 | -31.73896 | 136.23296 | 36124 ft | 385 kts | 316° |
| 2026-04-15 15:51 | -31.69751 | 136.19319 | 36127 ft | 385 kts | 316° |
| 2026-04-15 15:52 | -31.65600 | 136.15341 | 36128 ft | 385 kts | 316° |
| 2026-04-15 15:52 | -31.61447 | 136.11366 | 36122 ft | 385 kts | 316° |
| 2026-04-15 15:53 | -31.57297 | 136.07398 | 36107 ft | 385 kts | 316° |
| 2026-04-15 15:53 | -31.53163 | 136.03453 | 36122 ft | 382 kts | 316° |
| 2026-04-15 15:54 | -31.49038 | 135.99517 | 36124 ft | 383 kts | 316° |
| 2026-04-15 15:54 | -31.44905 | 135.95579 | 36123 ft | 383 kts | 316° |
| 2026-04-15 15:55 | -31.40776 | 135.91650 | 36121 ft | 383 kts | 316° |
| 2026-04-15 15:55 | -31.36643 | 135.87722 | 36121 ft | 383 kts | 316° |
| 2026-04-15 15:56 | -31.32510 | 135.83798 | 36121 ft | 383 kts | 316° |
| 2026-04-15 15:56 | -31.28404 | 135.79905 | 36121 ft | 383 kts | 316° |
| 2026-04-15 15:57 | -31.24219 | 135.76053 | 36124 ft | 385 kts | 320° |
| 2026-04-15 15:57 | -31.19616 | 135.72811 | 36133 ft | 389 kts | 326° |
| 2026-04-15 15:58 | -31.14605 | 135.70289 | 36128 ft | 394 kts | 330° |
| 2026-04-15 15:58 | -31.09531 | 135.67896 | 36124 ft | 393 kts | 330° |
| 2026-04-15 15:59 | -31.04469 | 135.65498 | 36125 ft | 393 kts | 330° |
| 2026-04-15 15:59 | -30.99405 | 135.63103 | 36123 ft | 393 kts | 330° |
| 2026-04-15 16:00 | -30.94345 | 135.60715 | 36132 ft | 392 kts | 330° |
| 2026-04-15 16:00 | -30.89294 | 135.58332 | 36128 ft | 391 kts | 330° |
| 2026-04-15 16:01 | -30.84250 | 135.55956 | 36124 ft | 391 kts | 330° |
| 2026-04-15 16:01 | -30.79209 | 135.53584 | 36122 ft | 391 kts | 330° |
| 2026-04-15 16:02 | -30.74171 | 135.51216 | 36121 ft | 390 kts | 330° |
| 2026-04-15 16:02 | -30.69141 | 135.48855 | 36134 ft | 389 kts | 330° |
| 2026-04-15 16:03 | -30.64124 | 135.46502 | 36124 ft | 389 kts | 330° |
| 2026-04-15 16:03 | -30.59110 | 135.44153 | 36122 ft | 388 kts | 330° |
| 2026-04-15 16:04 | -30.54099 | 135.41808 | 36119 ft | 388 kts | 330° |
| 2026-04-15 16:04 | -30.49090 | 135.39467 | 36117 ft | 388 kts | 330° |
| 2026-04-15 16:05 | -30.44125 | 135.37150 | 36127 ft | 387 kts | 330° |
| 2026-04-15 16:05 | -30.39130 | 135.34820 | 36125 ft | 387 kts | 330° |
| 2026-04-15 16:06 | -30.34142 | 135.32496 | 36123 ft | 386 kts | 330° |
| 2026-04-15 16:06 | -30.29154 | 135.30175 | 36122 ft | 386 kts | 330° |
| 2026-04-15 16:07 | -30.24164 | 135.27856 | 36121 ft | 386 kts | 330° |
| 2026-04-15 16:08 | -30.16697 | 135.24390 | 36124 ft | 385 kts | 330° |
| 2026-04-15 16:08 | -30.11719 | 135.22082 | 36127 ft | 385 kts | 330° |
| 2026-04-15 16:09 | -30.06745 | 135.19779 | 36125 ft | 385 kts | 330° |
| 2026-04-15 16:09 | -30.02607 | 135.17864 | 36125 ft | 385 kts | 330° |
| 2026-04-15 16:10 | -29.97629 | 135.15564 | 36123 ft | 385 kts | 330° |
| 2026-04-15 16:10 | -29.92660 | 135.13271 | 36132 ft | 384 kts | 330° |
| 2026-04-15 16:11 | -29.87695 | 135.10981 | 36127 ft | 384 kts | 330° |
| 2026-04-15 16:11 | -29.82734 | 135.08696 | 36126 ft | 384 kts | 330° |
| 2026-04-15 16:12 | -29.77772 | 135.06412 | 36125 ft | 384 kts | 330° |
| 2026-04-15 16:12 | -29.72807 | 135.04131 | 36125 ft | 384 kts | 330° |
| 2026-04-15 16:13 | -29.67853 | 135.01856 | 36131 ft | 383 kts | 330° |
| 2026-04-15 16:13 | -29.62901 | 134.99585 | 36137 ft | 383 kts | 330° |
| 2026-04-15 16:14 | -29.57986 | 134.97332 | 36121 ft | 383 kts | 330° |
| 2026-04-15 16:14 | -29.53030 | 134.95064 | 36121 ft | 383 kts | 330° |
| 2026-04-15 16:15 | -29.48086 | 134.92804 | 36125 ft | 382 kts | 330° |
| 2026-04-15 16:15 | -29.43142 | 134.90546 | 36126 ft | 382 kts | 330° |
| 2026-04-15 16:16 | -29.38198 | 134.88290 | 36125 ft | 382 kts | 330° |
| 2026-04-15 16:16 | -29.33252 | 134.86036 | 36125 ft | 382 kts | 330° |
| 2026-04-15 16:17 | -29.28309 | 134.83785 | 36119 ft | 382 kts | 330° |
| 2026-04-15 16:17 | -29.23365 | 134.81537 | 36123 ft | 382 kts | 330° |
| 2026-04-15 16:18 | -29.18419 | 134.79290 | 36125 ft | 382 kts | 330° |
| 2026-04-15 16:18 | -29.13483 | 134.77049 | 36126 ft | 381 kts | 330° |
| 2026-04-15 16:19 | -29.08550 | 134.74800 | 36126 ft | 380 kts | 328° |
| 2026-04-15 16:19 | -29.04160 | 134.71675 | 36123 ft | 368 kts | 315° |
| 2026-04-15 16:20 | -29.00811 | 134.67346 | 36090 ft | 362 kts | 302° |
| 2026-04-15 16:20 | -28.98355 | 134.62335 | 36118 ft | 362 kts | 298° |
| 2026-04-15 16:21 | -28.95666 | 134.57472 | 36122 ft | 363 kts | 305° |
| 2026-04-15 16:21 | -28.92365 | 134.53084 | 36124 ft | 366 kts | 311° |
| 2026-04-15 16:22 | -28.88566 | 134.49184 | 36123 ft | 368 kts | 315° |
| 2026-04-15 16:22 | -28.84708 | 134.45360 | 36125 ft | 367 kts | 315° |
| 2026-04-15 16:23 | -28.80851 | 134.41533 | 36147 ft | 368 kts | 315° |
| 2026-04-15 16:23 | -28.76981 | 134.37700 | 36124 ft | 369 kts | 315° |
| 2026-04-15 16:24 | -28.73108 | 134.33869 | 36095 ft | 369 kts | 315° |
| 2026-04-15 16:24 | -28.69262 | 134.30069 | 36127 ft | 368 kts | 315° |
| 2026-04-15 16:25 | -28.65391 | 134.26249 | 36126 ft | 368 kts | 315° |
| 2026-04-15 16:25 | -28.61520 | 134.22432 | 36149 ft | 368 kts | 315° |
| 2026-04-15 16:26 | -28.57644 | 134.18613 | 36114 ft | 368 kts | 315° |
| 2026-04-15 16:26 | -28.53770 | 134.14802 | 36124 ft | 368 kts | 315° |
| 2026-04-15 16:27 | -28.49896 | 134.10994 | 36121 ft | 368 kts | 315° |
| 2026-04-15 16:27 | -28.46022 | 134.07189 | 36121 ft | 368 kts | 315° |
| 2026-04-15 16:28 | -28.42145 | 134.03385 | 36116 ft | 368 kts | 315° |
| 2026-04-15 16:28 | -28.38263 | 133.99580 | 36117 ft | 368 kts | 315° |
| 2026-04-15 16:29 | -28.34382 | 133.95780 | 36113 ft | 368 kts | 315° |
| 2026-04-15 16:29 | -28.30498 | 133.91981 | 36115 ft | 368 kts | 315° |
| 2026-04-15 16:30 | -28.26614 | 133.88187 | 36110 ft | 368 kts | 315° |
| 2026-04-15 16:30 | -28.22738 | 133.84403 | 36110 ft | 368 kts | 315° |
| 2026-04-15 16:31 | -28.18848 | 133.80610 | 36111 ft | 369 kts | 315° |
| 2026-04-15 16:31 | -28.14979 | 133.76840 | 36117 ft | 369 kts | 315° |
| 2026-04-15 16:32 | -28.11058 | 133.73024 | 36103 ft | 369 kts | 315° |
| 2026-04-15 16:32 | -28.07189 | 133.69263 | 36107 ft | 369 kts | 315° |
| 2026-04-15 16:33 | -28.03294 | 133.65479 | 36107 ft | 370 kts | 315° |
| 2026-04-15 16:33 | -27.99384 | 133.61685 | 36112 ft | 370 kts | 315° |
| 2026-04-15 16:34 | -27.95477 | 133.57897 | 36118 ft | 370 kts | 315° |
| 2026-04-15 16:34 | -27.91567 | 133.54111 | 36123 ft | 370 kts | 315° |
| 2026-04-15 16:35 | -27.87653 | 133.50325 | 36108 ft | 370 kts | 315° |
| 2026-04-15 16:35 | -27.83737 | 133.46540 | 36128 ft | 371 kts | 316° |
| 2026-04-15 16:36 | -27.79818 | 133.42756 | 36123 ft | 371 kts | 316° |
| 2026-04-15 16:36 | -27.75890 | 133.38967 | 36127 ft | 371 kts | 316° |
| 2026-04-15 16:37 | -27.71958 | 133.35178 | 36131 ft | 372 kts | 316° |
| 2026-04-15 16:37 | -27.68027 | 133.31394 | 36119 ft | 371 kts | 316° |
| 2026-04-15 16:38 | -27.64093 | 133.27611 | 36124 ft | 371 kts | 316° |
| 2026-04-15 16:38 | -27.60165 | 133.23836 | 36118 ft | 371 kts | 316° |
| 2026-04-15 16:39 | -27.56258 | 133.20086 | 36118 ft | 371 kts | 316° |
| 2026-04-15 16:39 | -27.52324 | 133.16314 | 36123 ft | 372 kts | 316° |
| 2026-04-15 16:40 | -27.48360 | 133.12516 | 36120 ft | 371 kts | 316° |
| 2026-04-15 16:40 | -27.44448 | 133.08772 | 36116 ft | 371 kts | 316° |
| 2026-04-15 16:41 | -27.40511 | 133.05008 | 36118 ft | 371 kts | 316° |
| 2026-04-15 16:41 | -27.36572 | 133.01244 | 36122 ft | 372 kts | 316° |
| 2026-04-15 16:42 | -27.32620 | 132.97472 | 36109 ft | 372 kts | 316° |
| 2026-04-15 16:42 | -27.28670 | 132.93708 | 36118 ft | 372 kts | 316° |
| 2026-04-15 16:43 | -27.24713 | 132.89939 | 36116 ft | 373 kts | 316° |
| 2026-04-15 16:43 | -27.20758 | 132.86175 | 36127 ft | 373 kts | 316° |
| 2026-04-15 16:44 | -27.16786 | 132.82402 | 36100 ft | 374 kts | 318° |
| 2026-04-15 16:44 | -27.12822 | 132.78644 | 36116 ft | 373 kts | 315° |
| 2026-04-15 16:45 | -27.08870 | 132.74851 | 36122 ft | 374 kts | 315° |
| 2026-04-15 16:45 | -27.04903 | 132.71081 | 36124 ft | 374 kts | 316° |
| 2026-04-15 16:46 | -27.00922 | 132.67315 | 36103 ft | 374 kts | 316° |
| 2026-04-15 16:46 | -26.96940 | 132.63552 | 36121 ft | 374 kts | 316° |
| 2026-04-15 16:47 | -26.92954 | 132.59785 | 36126 ft | 375 kts | 316° |
| 2026-04-15 16:47 | -26.88895 | 132.56095 | 36128 ft | 376 kts | 317° |
| 2026-04-15 16:48 | -26.84800 | 132.52443 | 36134 ft | 377 kts | 317° |
| 2026-04-15 16:48 | -26.80712 | 132.48777 | 36130 ft | 376 kts | 317° |
| 2026-04-15 16:49 | -26.76632 | 132.45111 | 36128 ft | 376 kts | 317° |
| 2026-04-15 16:49 | -26.72546 | 132.41443 | 36129 ft | 377 kts | 317° |
| 2026-04-15 16:50 | -26.68456 | 132.37774 | 36133 ft | 377 kts | 317° |
| 2026-04-15 16:50 | -26.64360 | 132.34104 | 36127 ft | 377 kts | 317° |
| 2026-04-15 16:51 | -26.60263 | 132.30436 | 36132 ft | 377 kts | 317° |
| 2026-04-15 16:51 | -26.56165 | 132.26771 | 36134 ft | 377 kts | 317° |
| 2026-04-15 16:52 | -26.52066 | 132.23107 | 36133 ft | 377 kts | 317° |
| 2026-04-15 16:52 | -26.47965 | 132.19445 | 36137 ft | 377 kts | 317° |
| 2026-04-15 16:53 | -26.43864 | 132.15787 | 36131 ft | 378 kts | 317° |
| 2026-04-15 16:53 | -26.39757 | 132.12127 | 36138 ft | 378 kts | 317° |
| 2026-04-15 16:54 | -26.35649 | 132.08456 | 36134 ft | 378 kts | 317° |
| 2026-04-15 16:54 | -26.31537 | 132.04799 | 36122 ft | 378 kts | 318° |
| 2026-04-15 16:55 | -26.27423 | 132.01155 | 35839 ft | 377 kts | 317° |
| 2026-04-15 16:55 | -26.25369 | 131.99334 | 35264 ft | 380 kts | 317° |
| 2026-04-15 16:55 | -26.23301 | 131.97495 | 34345 ft | 390 kts | 317° |
| 2026-04-15 16:55 | -26.21174 | 131.95607 | 33439 ft | 394 kts | 317° |
| 2026-04-15 16:56 | -26.19034 | 131.93708 | 32701 ft | 393 kts | 317° |
| 2026-04-15 16:56 | -26.16878 | 131.91798 | 31798 ft | 396 kts | 318° |
| 2026-04-15 16:56 | -26.14722 | 131.89888 | 30985 ft | 397 kts | 318° |
| 2026-04-15 16:56 | -26.12571 | 131.87984 | 30471 ft | 392 kts | 318° |
| 2026-04-15 16:57 | -26.11134 | 131.86714 | 29954 ft | 391 kts | 318° |
| 2026-04-15 16:57 | -26.08344 | 131.84247 | 29153 ft | 383 kts | 318° |
| 2026-04-15 16:57 | -26.06269 | 131.82413 | 28540 ft | 379 kts | 318° |
| 2026-04-15 16:57 | -26.04884 | 131.81188 | 28118 ft | 376 kts | 318° |
| 2026-04-15 16:58 | -26.02870 | 131.79408 | 27519 ft | 373 kts | 318° |
| 2026-04-15 16:58 | -26.00845 | 131.77618 | 26904 ft | 370 kts | 318° |
| 2026-04-15 16:58 | -25.98810 | 131.75819 | 26243 ft | 370 kts | 318° |
| 2026-04-15 16:58 | -25.96803 | 131.74047 | 25657 ft | 366 kts | 318° |
| 2026-04-15 16:59 | -25.94821 | 131.72298 | 25025 ft | 372 kts | 319° |
| 2026-04-15 16:59 | -25.92753 | 131.70474 | 24622 ft | 392 kts | 319° |
| 2026-04-15 16:59 | -25.90614 | 131.68583 | 24318 ft | 394 kts | 319° |
| 2026-04-15 16:59 | -25.88454 | 131.66677 | 23588 ft | 400 kts | 319° |
| 2026-04-15 17:00 | -25.86270 | 131.64752 | 22796 ft | 400 kts | 319° |
| 2026-04-15 17:00 | -25.84098 | 131.62841 | 22095 ft | 396 kts | 319° |
| 2026-04-15 17:00 | -25.81945 | 131.60948 | 21360 ft | 394 kts | 319° |
| 2026-04-15 17:00 | -25.79813 | 131.59074 | 20442 ft | 388 kts | 320° |
| 2026-04-15 17:01 | -25.77707 | 131.57223 | 19460 ft | 385 kts | 320° |
| 2026-04-15 17:01 | -25.75641 | 131.55408 | 18784 ft | 373 kts | 320° |
| 2026-04-15 17:01 | -25.73629 | 131.53641 | 18086 ft | 364 kts | 320° |
| 2026-04-15 17:01 | -25.71669 | 131.51921 | 17416 ft | 354 kts | 320° |
| 2026-04-15 17:02 | -25.69763 | 131.50250 | 16773 ft | 345 kts | 320° |
| 2026-04-15 17:02 | -25.67880 | 131.48598 | 16130 ft | 346 kts | 320° |
| 2026-04-15 17:02 | -25.65987 | 131.46937 | 15472 ft | 347 kts | 320° |
| 2026-04-15 17:02 | -25.64088 | 131.45272 | 14812 ft | 349 kts | 321° |
| 2026-04-15 17:03 | -25.62175 | 131.43597 | 14141 ft | 352 kts | 321° |
| 2026-04-15 17:03 | -25.60252 | 131.41912 | 13417 ft | 354 kts | 321° |
| 2026-04-15 17:03 | -25.58327 | 131.40227 | 12792 ft | 352 kts | 321° |
| 2026-04-15 17:03 | -25.56401 | 131.38543 | 12133 ft | 353 kts | 321° |
| 2026-04-15 17:04 | -25.54469 | 131.36854 | 11416 ft | 355 kts | 321° |
| 2026-04-15 17:04 | -25.52535 | 131.35163 | 10736 ft | 355 kts | 321° |
| 2026-04-15 17:04 | -25.50607 | 131.33479 | 10380 ft | 347 kts | 321° |
| 2026-04-15 17:04 | -25.48754 | 131.31862 | 10239 ft | 332 kts | 321° |
| 2026-04-15 17:05 | -25.46990 | 131.30323 | 10060 ft | 313 kts | 321° |
| 2026-04-15 17:05 | -25.45335 | 131.28880 | 9795 ft | 296 kts | 321° |
| 2026-04-15 17:05 | -25.43732 | 131.27482 | 9247 ft | 291 kts | 321° |
| 2026-04-15 17:05 | -25.42150 | 131.26101 | 8632 ft | 288 kts | 321° |
| 2026-04-15 17:06 | -25.40578 | 131.24730 | 8022 ft | 287 kts | 322° |
| 2026-04-15 17:06 | -25.39026 | 131.23377 | 7548 ft | 280 kts | 322° |
| 2026-04-15 17:06 | -25.37547 | 131.22087 | 7378 ft | 262 kts | 322° |
| 2026-04-15 17:06 | -25.36164 | 131.20883 | 7231 ft | 245 kts | 322° |
| 2026-04-15 17:07 | -25.34955 | 131.19605 | 6907 ft | 238 kts | 310° |
| 2026-04-15 17:07 | -25.33914 | 131.18192 | 6463 ft | 236 kts | 310° |
| 2026-04-15 17:07 | -25.32883 | 131.16795 | 6011 ft | 233 kts | 310° |
| 2026-04-15 17:07 | -25.31861 | 131.15421 | 5583 ft | 230 kts | 310° |
| 2026-04-15 17:08 | -25.30851 | 131.14067 | 5166 ft | 227 kts | 311° |
| 2026-04-15 17:08 | -25.29852 | 131.12729 | 4785 ft | 224 kts | 311° |
| 2026-04-15 17:08 | -25.28839 | 131.11376 | 4439 ft | 230 kts | 312° |
| 2026-04-15 17:08 | -25.27823 | 131.10018 | 4116 ft | 229 kts | 312° |
| 2026-04-15 17:09 | -25.26807 | 131.08659 | 3745 ft | 228 kts | 312° |
| 2026-04-15 17:09 | -25.25808 | 131.07326 | 3401 ft | 222 kts | 313° |
| 2026-04-15 17:09 | -25.24834 | 131.06022 | 3053 ft | 218 kts | 313° |
| 2026-04-15 17:09 | -25.23897 | 131.04774 | 2913 ft | 202 kts | 313° |
| 2026-04-15 17:10 | -25.23015 | 131.03620 | 2905 ft | 186 kts | 313° |
| 2026-04-15 17:10 | -25.22255 | 131.02584 | 2910 ft | 165 kts | 312° |
| 2026-04-15 17:10 | -25.21571 | 131.01644 | 2677 ft | 154 kts | 313° |
| 2026-04-15 17:10 | -25.20888 | 131.00744 | 2300 ft | 153 kts | 313° |
| 2026-04-15 17:11 | -25.20202 | 130.99858 | 1936 ft | 148 kts | 309° |
| 2026-04-15 17:11 | -25.19573 | 130.99019 | 1720 ft | 138 kts | 310° |
| 2026-04-15 17:11 | -25.18973 | 130.98224 | 1637 ft | 123 kts | 310° |
| 2026-04-15 17:12 | -25.18457 | 130.97512 | 1628 ft | 0 kts | 253° |
| 2026-04-15 17:12 | -25.18470 | 130.97503 | 1631 ft | 6 kts | 213° |
| 2026-04-15 17:12 | -25.18523 | 130.97462 | 1627 ft | 12 kts | 224° |
| 2026-04-15 17:12 | -25.18600 | 130.97444 | 1630 ft | 13 kts | 146° |
| 2026-04-15 17:13 | -25.18661 | 130.97522 | 1628 ft | 14 kts | 130° |
| 2026-04-15 17:13 | -25.18730 | 130.97613 | 1628 ft | 16 kts | 129° |
| 2026-04-15 17:13 | -25.18763 | 130.97657 | 1628 ft | 0 kts | 130° |
| 2026-04-15 17:14 | -25.18773 | 130.97669 | 1628 ft | 5 kts | 129° |
| 2026-04-15 17:14 | -25.18806 | 130.97714 | 1631 ft | 11 kts | 129° |
| 2026-04-15 17:15 | -25.18873 | 130.97778 | 1630 ft | 13 kts | 174° |
| 2026-04-15 17:15 | -25.18933 | 130.97734 | 1629 ft | 12 kts | 214° |
| 2026-04-15 17:15 | -25.18960 | 130.97684 | 1631 ft | 1 kts | 268° |
| 2026-04-15 17:15 | -25.18966 | 130.97647 | 1630 ft | 8 kts | 260° |
| 2026-04-15 17:16 | -25.18968 | 130.97635 | 1629 ft | 0 kts | 261° |